Time,TemperatureF,DewpointF,PressureIn,WindDirection,WindDirectionDegrees,WindSpeedMPH,WindSpeedGustMPH,Humidity,HourlyPrecipIn,Conditions,Clouds,dailyrainin,SolarRadiationWatts/m^2,SoftwareType,DateUTC
2014-01-28 00:00:00,-8.0,-11.0,-100.00,SSW,202,1.0,-999.0,83,-99.99,,,-99.99,0.000000,,2014-01-28 05:00:00,
2014-01-28 00:42:00,-8.0,-11.0,-100.00,SSW,202,1.0,-999.0,83,-99.99,,,-99.99,0.000000,,2014-01-28 05:42:00,
2014-01-28 00:53:00,-8.0,-11.0,-100.00,SSW,202,1.0,-999.0,83,-99.99,,,-99.99,0.000000,,2014-01-28 05:53:00,
2014-01-28 01:00:00,-8.0,-12.0,-100.00,SW,225,4.0,-999.0,82,-99.99,,,-99.99,0.000000,,2014-01-28 06:00:00,
2014-01-28 01:42:00,-8.0,-12.0,-100.00,SW,225,4.0,-999.0,82,-99.99,,,-99.99,0.000000,,2014-01-28 06:42:00,
2014-01-28 01:52:00,-8.0,-12.0,-100.00,SW,225,4.0,-999.0,82,-99.99,,,-99.99,0.000000,,2014-01-28 06:52:00,
2014-01-28 02:00:00,-9.0,-14.0,-100.00,SW,225,4.0,-999.0,81,-99.99,,,-99.99,0.000000,,2014-01-28 07:00:00,
2014-01-28 02:42:00,-9.0,-14.0,-100.00,SW,225,4.0,-999.0,81,-99.99,,,-99.99,0.000000,,2014-01-28 07:42:00,
2014-01-28 02:52:00,-9.0,-14.0,-100.00,SW,225,4.0,-999.0,81,-99.99,,,-99.99,0.000000,,2014-01-28 07:52:00,
2014-01-28 04:00:00,-11.0,-15.0,-100.00,SSW,202,4.0,-999.0,80,-99.99,,,-99.99,0.000000,,2014-01-28 09:00:00,
2014-01-28 04:43:00,-11.0,-15.0,-100.00,SSW,202,4.0,-999.0,80,-99.99,,,-99.99,0.000000,,2014-01-28 09:43:00,
2014-01-28 04:54:00,-11.0,-15.0,-100.00,SSW,202,4.0,-999.0,80,-99.99,,,-99.99,0.000000,,2014-01-28 09:54:00,
2014-01-28 05:00:00,-11.0,-16.0,-100.00,SW,225,4.0,-999.0,80,-99.99,,,-99.99,0.000000,,2014-01-28 10:00:00,
2014-01-28 05:42:00,-11.0,-16.0,-100.00,SW,225,4.0,-999.0,80,-99.99,,,-99.99,0.000000,,2014-01-28 10:42:00,
2014-01-28 05:53:00,-11.0,-16.0,-100.00,SW,225,4.0,-999.0,80,-99.99,,,-99.99,0.000000,,2014-01-28 10:53:00,
2014-01-28 08:00:00,-12.0,-16.0,-100.00,SW,225,5.0,-999.0,79,-99.99,,,-99.99,1.160000,,2014-01-28 13:00:00,
2014-01-28 08:42:00,-12.0,-16.0,-100.00,SW,225,5.0,-999.0,79,-99.99,,,-99.99,1.160000,,2014-01-28 13:42:00,
2014-01-28 08:52:00,-12.0,-16.0,-100.00,SW,225,5.0,-999.0,79,-99.99,,,-99.99,1.160000,,2014-01-28 13:52:00,
2014-01-28 11:00:00,-6.0,-10.0,-100.00,SW,225,7.0,-999.0,80,-99.99,,,-99.99,306.239990,,2014-01-28 16:00:00,
2014-01-28 11:43:00,-6.0,-10.0,-100.00,SW,225,7.0,-999.0,80,-99.99,,,-99.99,306.239990,,2014-01-28 16:43:00,
2014-01-28 11:53:00,-6.0,-10.0,-100.00,SW,225,7.0,-999.0,80,-99.99,,,-99.99,306.239990,,2014-01-28 16:53:00,
2014-01-28 12:00:00,-3.0,-8.0,-100.00,SW,225,8.0,-999.0,79,-99.99,,,-99.99,394.399994,,2014-01-28 17:00:00,
2014-01-28 12:43:00,-3.0,-8.0,-100.00,SW,225,8.0,-999.0,79,-99.99,,,-99.99,394.399994,,2014-01-28 17:43:00,
2014-01-28 12:53:00,-3.0,-8.0,-100.00,SW,225,8.0,-999.0,79,-99.99,,,-99.99,394.399994,,2014-01-28 17:53:00,
2014-01-28 13:00:00,-1.0,-7.0,-100.00,SW,225,9.0,-999.0,73,-99.99,,,-99.99,447.760010,,2014-01-28 18:00:00,
2014-01-28 13:43:00,-1.0,-7.0,-100.00,SW,225,9.0,-999.0,73,-99.99,,,-99.99,447.760010,,2014-01-28 18:43:00,
2014-01-28 13:52:00,-1.0,-7.0,-100.00,SW,225,9.0,-999.0,73,-99.99,,,-99.99,447.760010,,2014-01-28 18:52:00,
2014-01-28 14:00:00,1.0,-8.0,-100.00,SW,225,8.0,-999.0,65,-99.99,,,-99.99,438.480011,,2014-01-28 19:00:00,
2014-01-28 14:42:00,1.0,-8.0,-100.00,SW,225,8.0,-999.0,65,-99.99,,,-99.99,438.480011,,2014-01-28 19:42:00,
2014-01-28 14:52:00,1.0,-8.0,-100.00,SW,225,8.0,-999.0,65,-99.99,,,-99.99,438.480011,,2014-01-28 19:52:00,
2014-01-28 15:00:00,2.0,-8.0,-100.00,SW,225,8.0,-999.0,61,-99.99,,,-99.99,381.640015,,2014-01-28 20:00:00,
2014-01-28 15:42:00,2.0,-8.0,-100.00,SW,225,8.0,-999.0,61,-99.99,,,-99.99,381.640015,,2014-01-28 20:42:00,
2014-01-28 15:52:00,2.0,-8.0,-100.00,SW,225,8.0,-999.0,61,-99.99,,,-99.99,381.640015,,2014-01-28 20:52:00,
2014-01-28 16:00:00,4.0,-7.0,-100.00,SW,225,8.0,-999.0,60,-99.99,,,-99.99,276.079987,,2014-01-28 21:00:00,
2014-01-28 16:44:00,4.0,-7.0,-100.00,SW,225,8.0,-999.0,60,-99.99,,,-99.99,276.079987,,2014-01-28 21:44:00,
2014-01-28 16:53:00,4.0,-7.0,-100.00,SW,225,8.0,-999.0,60,-99.99,,,-99.99,276.079987,,2014-01-28 21:53:00,
2014-01-28 17:00:00,3.0,-8.0,-100.00,SW,225,8.0,-999.0,60,-99.99,,,-99.99,151.960007,,2014-01-28 22:00:00,
2014-01-28 17:43:00,3.0,-8.0,-100.00,SW,225,8.0,-999.0,60,-99.99,,,-99.99,151.960007,,2014-01-28 22:43:00,
2014-01-28 17:53:00,3.0,-8.0,-100.00,SW,225,8.0,-999.0,60,-99.99,,,-99.99,151.960007,,2014-01-28 22:53:00,
2014-01-28 18:00:00,1.0,-9.0,-100.00,SW,225,7.0,-999.0,61,-99.99,,,-99.99,24.360001,,2014-01-28 23:00:00,
2014-01-28 18:42:00,1.0,-9.0,-100.00,SW,225,7.0,-999.0,61,-99.99,,,-99.99,24.360001,,2014-01-28 23:42:00,
2014-01-28 18:53:00,1.0,-9.0,-100.00,SW,225,7.0,-999.0,61,-99.99,,,-99.99,24.360001,,2014-01-28 23:53:00,
2014-01-28 19:00:00,-2.0,-14.0,-100.00,SW,225,6.0,-999.0,56,-99.99,,,-99.99,0.000000,,2014-01-29 00:00:00,
2014-01-28 19:42:00,-2.0,-14.0,-100.00,SW,225,6.0,-999.0,56,-99.99,,,-99.99,0.000000,,2014-01-29 00:42:00,
2014-01-28 19:52:00,-2.0,-14.0,-100.00,SW,225,6.0,-999.0,56,-99.99,,,-99.99,0.000000,,2014-01-29 00:52:00,
2014-01-28 20:00:00,-4.0,-14.0,-100.00,SW,225,6.0,-999.0,60,-99.99,,,-99.99,0.000000,,2014-01-29 01:00:00,
2014-01-28 20:42:00,-4.0,-14.0,-100.00,SW,225,6.0,-999.0,60,-99.99,,,-99.99,0.000000,,2014-01-29 01:42:00,
2014-01-28 20:52:00,-4.0,-14.0,-100.00,SW,225,6.0,-999.0,60,-99.99,,,-99.99,0.000000,,2014-01-29 01:52:00,
2014-01-28 21:00:00,-4.0,-13.0,-100.00,SSW,202,9.0,-999.0,66,-99.99,,,-99.99,0.000000,,2014-01-29 02:00:00,
2014-01-28 21:42:00,-4.0,-13.0,-100.00,SSW,202,9.0,-999.0,66,-99.99,,,-99.99,0.000000,,2014-01-29 02:42:00,
2014-01-28 21:52:00,-4.0,-13.0,-100.00,SSW,202,9.0,-999.0,66,-99.99,,,-99.99,0.000000,,2014-01-29 02:52:00,
2014-01-28 22:00:00,-5.0,-13.0,-100.00,SW,225,7.0,-999.0,69,-99.99,,,-99.99,0.000000,,2014-01-29 03:00:00,
2014-01-28 22:43:00,-5.0,-13.0,-100.00,SW,225,7.0,-999.0,69,-99.99,,,-99.99,0.000000,,2014-01-29 03:43:00,
2014-01-28 22:54:00,-5.0,-13.0,-100.00,SW,225,7.0,-999.0,69,-99.99,,,-99.99,0.000000,,2014-01-29 03:54:00,
2014-01-28 23:00:00,-6.0,-13.0,-100.00,SSW,202,6.0,-999.0,72,-99.99,,,-99.99,0.000000,,2014-01-29 04:00:00,
2014-01-28 23:43:00,-6.0,-13.0,-100.00,SSW,202,6.0,-999.0,72,-99.99,,,-99.99,0.000000,,2014-01-29 04:43:00,
2014-01-28 23:53:00,-6.0,-13.0,-100.00,SSW,202,6.0,-999.0,72,-99.99,,,-99.99,0.000000,,2014-01-29 04:53:00,